sensor_id;sensor_type;location;lat;lon;timestamp;pressure;altitude;pressure_sealevel;temperature;humidity
75086;BME280;63663;0.000;0.000;2022-12-07T00:00:13;100696.13;;;7.70;63.53
75086;BME280;63663;0.000;0.000;2022-12-07T00:02:39;100695.81;;;7.66;63.39
75086;BME280;63663;0.000;0.000;2022-12-07T00:05:04;100692.84;;;7.68;63.77
75086;BME280;63663;0.000;0.000;2022-12-07T00:07:29;100687.19;;;7.69;63.63
75086;BME280;63663;0.000;0.000;2022-12-07T00:09:54;100686.28;;;7.63;63.30
75086;BME280;63663;0.000;0.000;2022-12-07T00:12:19;100689.25;;;7.62;63.40
75086;BME280;63663;0.000;0.000;2022-12-07T00:14:44;100684.66;;;7.62;63.67
75086;BME280;63663;0.000;0.000;2022-12-07T00:17:10;100679.78;;;7.64;63.43
75086;BME280;63663;0.000;0.000;2022-12-07T00:19:35;100674.38;;;7.64;63.72
75086;BME280;63663;0.000;0.000;2022-12-07T00:22:00;100671.91;;;7.63;64.18
75086;BME280;63663;0.000;0.000;2022-12-07T00:24:25;100676.28;;;7.64;64.36
75086;BME280;63663;0.000;0.000;2022-12-07T00:26:50;100678.16;;;7.63;63.80
75086;BME280;63663;0.000;0.000;2022-12-07T00:29:17;100673.06;;;7.67;63.62
75086;BME280;63663;0.000;0.000;2022-12-07T00:31:42;100673.56;;;7.64;64.60
75086;BME280;63663;0.000;0.000;2022-12-07T00:34:09;100677.91;;;7.65;64.05
75086;BME280;63663;0.000;0.000;2022-12-07T00:36:36;100679.56;;;7.66;64.06
75086;BME280;63663;0.000;0.000;2022-12-07T00:39:01;100676.59;;;7.68;64.41
75086;BME280;63663;0.000;0.000;2022-12-07T00:41:27;100686.84;;;7.66;64.76
75086;BME280;63663;0.000;0.000;2022-12-07T00:43:53;100674.13;;;7.66;64.68
75086;BME280;63663;0.000;0.000;2022-12-07T00:46:18;100668.97;;;7.64;64.24
75086;BME280;63663;0.000;0.000;2022-12-07T00:48:44;100665.19;;;7.66;64.14
75086;BME280;63663;0.000;0.000;2022-12-07T00:51:09;100665.19;;;7.66;64.41
75086;BME280;63663;0.000;0.000;2022-12-07T00:53:35;100657.63;;;7.68;64.41
75086;BME280;63663;0.000;0.000;2022-12-07T00:56:07;100652.22;;;7.68;64.51
75086;BME280;63663;0.000;0.000;2022-12-07T00:58:32;100652.47;;;7.66;64.21
75086;BME280;63663;0.000;0.000;2022-12-07T01:00:59;100648.09;;;7.65;64.95
75086;BME280;63663;0.000;0.000;2022-12-07T01:03:24;100651.41;;;7.67;64.55
75086;BME280;63663;0.000;0.000;2022-12-07T01:05:50;100649.50;;;7.68;64.87
75086;BME280;63663;0.000;0.000;2022-12-07T01:08:16;100644.91;;;7.68;64.63
75086;BME280;63663;0.000;0.000;2022-12-07T01:10:41;100648.69;;;7.67;64.44
75086;BME280;63663;0.000;0.000;2022-12-07T01:13:06;100653.03;;;7.68;64.83
75086;BME280;63663;0.000;0.000;2022-12-07T01:15:31;100660.34;;;7.68;64.92
75086;BME280;63663;0.000;0.000;2022-12-07T01:17:56;100657.63;;;7.68;64.86
75086;BME280;63663;0.000;0.000;2022-12-07T01:20:22;100653.28;;;7.67;65.11
75086;BME280;63663;0.000;0.000;2022-12-07T01:22:47;100653.91;;;7.74;64.40
75086;BME280;63663;0.000;0.000;2022-12-07T01:25:12;100657.38;;;7.69;65.00
75086;BME280;63663;0.000;0.000;2022-12-07T01:27:37;100658.22;;;7.70;64.45
75086;BME280;63663;0.000;0.000;2022-12-07T01:30:03;100661.41;;;7.67;64.81
75086;BME280;63663;0.000;0.000;2022-12-07T01:32:31;100661.41;;;7.67;64.59
75086;BME280;63663;0.000;0.000;2022-12-07T01:34:56;100656.38;;;7.75;64.35
75086;BME280;63663;0.000;0.000;2022-12-07T01:37:21;100654.72;;;7.74;64.44
75086;BME280;63663;0.000;0.000;2022-12-07T01:39:50;100661.50;;;7.72;64.37
75086;BME280;63663;0.000;0.000;2022-12-07T01:42:16;100662.03;;;7.74;64.61
75086;BME280;63663;0.000;0.000;2022-12-07T01:47:25;100667.72;;;7.72;64.09
75086;BME280;63663;0.000;0.000;2022-12-07T01:49:50;100661.97;;;7.69;64.69
75086;BME280;63663;0.000;0.000;2022-12-07T01:52:17;100665.06;;;7.77;63.92
75086;BME280;63663;0.000;0.000;2022-12-07T01:54:44;100661.78;;;7.75;64.33
75086;BME280;63663;0.000;0.000;2022-12-07T01:57:10;100660.97;;;7.75;64.11
75086;BME280;63663;0.000;0.000;2022-12-07T01:59:36;100662.84;;;7.74;64.31
75086;BME280;63663;0.000;0.000;2022-12-07T02:02:03;100654.31;;;7.82;63.74
75086;BME280;63663;0.000;0.000;2022-12-07T02:04:29;100654.47;;;7.76;64.04
75086;BME280;63663;0.000;0.000;2022-12-07T02:06:55;100662.03;;;7.74;64.50
75086;BME280;63663;0.000;0.000;2022-12-07T02:11:55;100651.19;;;7.74;64.22
75086;BME280;63663;0.000;0.000;2022-12-07T02:14:21;100658.84;;;7.77;64.22
75086;BME280;63663;0.000;0.000;2022-12-07T02:16:52;100645.28;;;7.77;64.11
75086;BME280;63663;0.000;0.000;2022-12-07T02:26:45;100644.22;;;7.78;64.58
75086;BME280;63663;0.000;0.000;2022-12-07T02:29:16;100657.19;;;7.76;64.25
75086;BME280;63663;0.000;0.000;2022-12-07T02:31:44;100650.78;;;7.82;63.66
75086;BME280;63663;0.000;0.000;2022-12-07T02:34:17;100649.97;;;7.81;63.71
75086;BME280;63663;0.000;0.000;2022-12-07T02:36:45;100649.38;;;7.79;63.89
75086;BME280;63663;0.000;0.000;2022-12-07T02:39:17;100648.47;;;7.74;64.16
75086;BME280;63663;0.000;0.000;2022-12-07T02:41:44;100647.66;;;7.73;64.69
75086;BME280;63663;0.000;0.000;2022-12-07T02:44:13;100641.47;;;7.73;64.42
75086;BME280;63663;0.000;0.000;2022-12-07T02:46:43;100641.69;;;7.71;63.98
75086;BME280;63663;0.000;0.000;2022-12-07T02:49:09;100641.69;;;7.71;64.08
75086;BME280;63663;0.000;0.000;2022-12-07T02:51:38;100639.81;;;7.72;63.82
75086;BME280;63663;0.000;0.000;2022-12-07T02:54:07;100630.88;;;7.71;64.17
75086;BME280;63663;0.000;0.000;2022-12-07T03:06:53;100636.81;;;7.73;63.72
75086;BME280;63663;0.000;0.000;2022-12-07T03:09:32;100634.13;;;7.73;63.96
75086;BME280;63663;0.000;0.000;2022-12-07T03:15:08;100630.91;;;7.76;63.51
75086;BME280;63663;0.000;0.000;2022-12-07T03:17:35;100623.84;;;7.75;63.74
75086;BME280;63663;0.000;0.000;2022-12-07T03:20:04;100617.06;;;7.73;63.63
75086;BME280;63663;0.000;0.000;2022-12-07T03:22:32;100623.03;;;7.75;63.67
75086;BME280;63663;0.000;0.000;2022-12-07T03:25:00;100622.22;;;7.74;63.57
75086;BME280;63663;0.000;0.000;2022-12-07T03:27:29;100624.91;;;7.74;63.85
75086;BME280;63663;0.000;0.000;2022-12-07T03:30:04;100621.66;;;7.72;63.57
75086;BME280;63663;0.000;0.000;2022-12-07T03:32:33;100623.28;;;7.73;64.02
75086;BME280;63663;0.000;0.000;2022-12-07T03:40:47;100613.25;;;7.74;63.40
75086;BME280;63663;0.000;0.000;2022-12-07T03:42:45;100615.16;;;7.73;63.36
75086;BME280;63663;0.000;0.000;2022-12-07T03:45:11;100617.88;;;7.73;63.56
75086;BME280;63663;0.000;0.000;2022-12-07T03:50:09;100623.03;;;7.75;62.52
75086;BME280;63663;0.000;0.000;2022-12-07T03:55:06;100624.91;;;7.74;63.17
75086;BME280;63663;0.000;0.000;2022-12-07T03:57:33;100622.22;;;7.74;63.39
75086;BME280;63663;0.000;0.000;2022-12-07T04:00:00;100623.03;;;7.75;63.20
75086;BME280;63663;0.000;0.000;2022-12-07T04:02:26;100623.28;;;7.73;62.90
75086;BME280;63663;0.000;0.000;2022-12-07T04:04:52;100619.50;;;7.74;62.80
75086;BME280;63663;0.000;0.000;2022-12-07T04:07:17;100615.16;;;7.73;62.96
75086;BME280;63663;0.000;0.000;2022-12-07T04:09:43;100612.72;;;7.72;63.40
75086;BME280;63663;0.000;0.000;2022-12-07T04:12:08;100614.38;;;7.73;62.94
75086;BME280;63663;0.000;0.000;2022-12-07T04:14:33;100618.13;;;7.72;62.63
75086;BME280;63663;0.000;0.000;2022-12-07T04:16:58;100614.38;;;7.73;63.28
75086;BME280;63663;0.000;0.000;2022-12-07T04:19:25;100612.44;;;7.73;62.70
75086;BME280;63663;0.000;0.000;2022-12-07T04:21:50;100619.78;;;7.73;62.69
75086;BME280;63663;0.000;0.000;2022-12-07T04:24:15;100617.88;;;7.73;62.52
75086;BME280;63663;0.000;0.000;2022-12-07T04:26:41;100619.78;;;7.73;62.34
75086;BME280;63663;0.000;0.000;2022-12-07T04:29:07;100626.81;;;7.74;63.01
75086;BME280;63663;0.000;0.000;2022-12-07T04:31:32;100620.56;;;7.73;62.28
75086;BME280;63663;0.000;0.000;2022-12-07T04:33:57;100623.56;;;7.72;62.55
75086;BME280;63663;0.000;0.000;2022-12-07T04:36:22;100626.50;;;7.70;62.74
75086;BME280;63663;0.000;0.000;2022-12-07T04:38:47;100621.91;;;7.71;62.44
75086;BME280;63663;0.000;0.000;2022-12-07T04:41:13;100624.63;;;7.71;62.66
75086;BME280;63663;0.000;0.000;2022-12-07T04:43:38;100616.50;;;7.71;62.44
75086;BME280;63663;0.000;0.000;2022-12-07T04:46:03;100623.56;;;7.72;62.65
75086;BME280;63663;0.000;0.000;2022-12-07T04:48:29;100617.31;;;7.71;62.82
75086;BME280;63663;0.000;0.000;2022-12-07T04:50:54;100619.78;;;7.73;62.66
75086;BME280;63663;0.000;0.000;2022-12-07T04:53:19;100616.50;;;7.71;62.95
75086;BME280;63663;0.000;0.000;2022-12-07T04:55:45;100621.09;;;7.70;63.01
75086;BME280;63663;0.000;0.000;2022-12-07T04:58:10;100614.38;;;7.73;62.35
75086;BME280;63663;0.000;0.000;2022-12-07T05:00:35;100620.06;;;7.76;62.48
75086;BME280;63663;0.000;0.000;2022-12-07T05:03:01;100614.63;;;7.71;62.86
75086;BME280;63663;0.000;0.000;2022-12-07T05:05:26;100617.31;;;7.71;62.71
75086;BME280;63663;0.000;0.000;2022-12-07T05:07:51;100616.50;;;7.71;62.93
75086;BME280;63663;0.000;0.000;2022-12-07T05:10:16;100622.75;;;7.71;62.75
75086;BME280;63663;0.000;0.000;2022-12-07T05:12:41;100617.31;;;7.71;62.62
75086;BME280;63663;0.000;0.000;2022-12-07T05:15:06;100619.22;;;7.71;62.74
75086;BME280;63663;0.000;0.000;2022-12-07T05:17:32;100625.19;;;7.73;62.70
75086;BME280;63663;0.000;0.000;2022-12-07T05:19:57;100621.09;;;7.70;62.34
75086;BME280;63663;0.000;0.000;2022-12-07T05:22:22;100620.84;;;7.72;63.05
75086;BME280;63663;0.000;0.000;2022-12-07T05:24:47;100614.38;;;7.73;62.74
75086;BME280;63663;0.000;0.000;2022-12-07T05:27:12;100617.63;;;7.75;62.15
75086;BME280;63663;0.000;0.000;2022-12-07T05:29:37;100616.53;;;7.76;62.66
75086;BME280;63663;0.000;0.000;2022-12-07T05:32:03;100620.31;;;7.75;62.02
75086;BME280;63663;0.000;0.000;2022-12-07T05:34:28;100611.09;;;7.71;62.79
75086;BME280;63663;0.000;0.000;2022-12-07T05:36:53;100613.25;;;7.74;62.19
75086;BME280;63663;0.000;0.000;2022-12-07T05:39:18;100610.00;;;7.72;62.52
75086;BME280;63663;0.000;0.000;2022-12-07T05:41:43;100610.25;;;7.70;62.47
75086;BME280;63663;0.000;0.000;2022-12-07T05:44:08;100612.72;;;7.72;62.70
75086;BME280;63663;0.000;0.000;2022-12-07T05:46:34;100610.25;;;7.70;62.66
75086;BME280;63663;0.000;0.000;2022-12-07T05:48:59;100608.38;;;7.71;62.38
75086;BME280;63663;0.000;0.000;2022-12-07T05:51:24;100613.53;;;7.72;62.75
75086;BME280;63663;0.000;0.000;2022-12-07T05:53:49;100607.81;;;7.69;62.60
75086;BME280;63663;0.000;0.000;2022-12-07T05:56:15;100605.91;;;7.69;62.87
75086;BME280;63663;0.000;0.000;2022-12-07T05:58:40;100607.81;;;7.69;62.56
75086;BME280;63663;0.000;0.000;2022-12-07T06:01:05;100600.75;;;7.68;62.50
75086;BME280;63663;0.000;0.000;2022-12-07T06:03:30;100605.09;;;7.69;62.61
75086;BME280;63663;0.000;0.000;2022-12-07T06:05:55;100608.38;;;7.71;63.02
75086;BME280;63663;0.000;0.000;2022-12-07T06:08:20;100604.84;;;7.70;62.36
75086;BME280;63663;0.000;0.000;2022-12-07T06:10:46;100607.81;;;7.69;62.85
75086;BME280;63663;0.000;0.000;2022-12-07T06:13:11;100608.63;;;7.69;62.57
75086;BME280;63663;0.000;0.000;2022-12-07T06:15:37;100606.16;;;7.68;62.46
75086;BME280;63663;0.000;0.000;2022-12-07T06:18:02;100608.94;;;7.73;62.28
75086;BME280;63663;0.000;0.000;2022-12-07T06:20:27;100599.66;;;7.69;62.59
75086;BME280;63663;0.000;0.000;2022-12-07T06:22:52;100600.75;;;7.68;62.28
75086;BME280;63663;0.000;0.000;2022-12-07T06:25:18;100601.88;;;7.72;62.83
75086;BME280;63663;0.000;0.000;2022-12-07T06:27:43;100603.44;;;7.68;62.15
75086;BME280;63663;0.000;0.000;2022-12-07T06:30:08;100602.63;;;7.67;62.13
75086;BME280;63663;0.000;0.000;2022-12-07T06:32:34;100611.00;;;7.66;62.36
75086;BME280;63663;0.000;0.000;2022-12-07T06:34:59;100611.56;;;7.68;62.43
75086;BME280;63663;0.000;0.000;2022-12-07T06:37:24;100611.81;;;7.66;62.90
75086;BME280;63663;0.000;0.000;2022-12-07T06:39:49;100612.06;;;7.64;62.24
75086;BME280;63663;0.000;0.000;2022-12-07T06:42:15;100612.91;;;7.65;62.38
75086;BME280;63663;0.000;0.000;2022-12-07T06:44:40;100605.59;;;7.66;62.62
75086;BME280;63663;0.000;0.000;2022-12-07T06:47:05;100612.91;;;7.65;62.20
75086;BME280;63663;0.000;0.000;2022-12-07T06:49:30;100603.94;;;7.64;62.21
75086;BME280;63663;0.000;0.000;2022-12-07T06:51:55;100622.16;;;7.69;62.38
75086;BME280;63663;0.000;0.000;2022-12-07T06:54:20;100613.47;;;7.67;62.57
75086;BME280;63663;0.000;0.000;2022-12-07T06:56:46;100621.03;;;7.65;62.58
75086;BME280;63663;0.000;0.000;2022-12-07T06:59:11;100623.81;;;7.70;62.21
75086;BME280;63663;0.000;0.000;2022-12-07T07:01:36;100627.25;;;7.66;62.13
75086;BME280;63663;0.000;0.000;2022-12-07T07:04:01;100629.16;;;7.65;62.16
75086;BME280;63663;0.000;0.000;2022-12-07T07:06:27;100629.72;;;7.67;62.31
75086;BME280;63663;0.000;0.000;2022-12-07T07:08:52;100630.28;;;7.69;62.03
75086;BME280;63663;0.000;0.000;2022-12-07T07:11:17;100634.56;;;7.65;62.17
75086;BME280;63663;0.000;0.000;2022-12-07T07:13:43;100629.16;;;7.65;62.32
75086;BME280;63663;0.000;0.000;2022-12-07T07:16:08;100631.38;;;7.68;62.12
75086;BME280;63663;0.000;0.000;2022-12-07T07:18:34;100641.38;;;7.68;62.23
75086;BME280;63663;0.000;0.000;2022-12-07T07:20:59;100627.25;;;7.66;62.61
75086;BME280;63663;0.000;0.000;2022-12-07T07:23:24;100637.03;;;7.67;62.02
75086;BME280;63663;0.000;0.000;2022-12-07T07:25:50;100645.66;;;7.63;62.35
75086;BME280;63663;0.000;0.000;2022-12-07T07:28:15;100642.44;;;7.67;62.22
75086;BME280;63663;0.000;0.000;2022-12-07T07:30:43;100641.38;;;7.68;62.54
75086;BME280;63663;0.000;0.000;2022-12-07T07:33:09;100633.75;;;7.64;62.04
75086;BME280;63663;0.000;0.000;2022-12-07T07:35:34;100639.41;;;7.63;62.08
75086;BME280;63663;0.000;0.000;2022-12-07T07:38:00;100640.81;;;7.66;61.80
75086;BME280;63663;0.000;0.000;2022-12-07T07:40:25;100642.69;;;7.65;61.93
75086;BME280;63663;0.000;0.000;2022-12-07T07:42:51;100640.81;;;7.66;61.97
75086;BME280;63663;0.000;0.000;2022-12-07T07:45:17;100638.34;;;7.64;62.34
75086;BME280;63663;0.000;0.000;2022-12-07T07:47:42;100641.31;;;7.62;62.07
75086;BME280;63663;0.000;0.000;2022-12-07T07:50:07;100651.06;;;7.63;62.01
75086;BME280;63663;0.000;0.000;2022-12-07T07:52:33;100648.09;;;7.65;62.31
75086;BME280;63663;0.000;0.000;2022-12-07T07:54:58;100648.34;;;7.63;61.79
75086;BME280;63663;0.000;0.000;2022-12-07T07:57:23;100657.56;;;7.62;62.42
75086;BME280;63663;0.000;0.000;2022-12-07T07:59:49;100660.84;;;7.64;61.78
75086;BME280;63663;0.000;0.000;2022-12-07T08:02:17;100664.63;;;7.63;62.47
75086;BME280;63663;0.000;0.000;2022-12-07T08:04:43;100662.97;;;7.62;62.14
75086;BME280;63663;0.000;0.000;2022-12-07T08:07:08;100664.84;;;7.62;61.72
75086;BME280;63663;0.000;0.000;2022-12-07T08:09:33;100661.09;;;7.63;62.11
75086;BME280;63663;0.000;0.000;2022-12-07T08:11:59;100652.72;;;7.64;62.12
75086;BME280;63663;0.000;0.000;2022-12-07T08:14:24;100653.78;;;7.63;61.70
75086;BME280;63663;0.000;0.000;2022-12-07T08:16:49;100650.31;;;7.68;61.54
75086;BME280;63663;0.000;0.000;2022-12-07T08:19:14;100648.34;;;7.63;61.76
75086;BME280;63663;0.000;0.000;2022-12-07T08:21:39;100653.78;;;7.63;61.43
75086;BME280;63663;0.000;0.000;2022-12-07T08:24:05;100651.88;;;7.64;61.70
75086;BME280;63663;0.000;0.000;2022-12-07T08:26:30;100645.91;;;7.62;62.17
75086;BME280;63663;0.000;0.000;2022-12-07T08:28:55;100650.25;;;7.63;61.73
75086;BME280;63663;0.000;0.000;2022-12-07T08:31:20;100655.13;;;7.61;62.28
75086;BME280;63663;0.000;0.000;2022-12-07T08:33:46;100657.84;;;7.61;62.33
75086;BME280;63663;0.000;0.000;2022-12-07T08:36:11;100665.97;;;7.61;61.97
75086;BME280;63663;0.000;0.000;2022-12-07T08:38:37;100654.31;;;7.60;61.81
75086;BME280;63663;0.000;0.000;2022-12-07T08:41:03;100652.97;;;7.63;61.87
75086;BME280;63663;0.000;0.000;2022-12-07T08:43:29;100662.16;;;7.62;61.59
75086;BME280;63663;0.000;0.000;2022-12-07T08:48:31;100651.63;;;7.66;61.59
75086;BME280;63663;0.000;0.000;2022-12-07T08:50:57;100655.66;;;7.63;61.97
75086;BME280;63663;0.000;0.000;2022-12-07T08:53:22;100660.25;;;7.62;61.98
75086;BME280;63663;0.000;0.000;2022-12-07T08:55:48;100650.00;;;7.64;61.95
75086;BME280;63663;0.000;0.000;2022-12-07T08:58:13;100658.38;;;7.63;62.02
75086;BME280;63663;0.000;0.000;2022-12-07T09:00:38;100648.34;;;7.63;61.83
75086;BME280;63663;0.000;0.000;2022-12-07T09:03:03;100645.47;;;7.70;61.78
75086;BME280;63663;0.000;0.000;2022-12-07T09:05:29;100644.59;;;7.64;61.99
75086;BME280;63663;0.000;0.000;2022-12-07T09:07:56;100651.16;;;7.69;61.71
75086;BME280;63663;0.000;0.000;2022-12-07T09:10:23;100647.53;;;7.63;61.88
75086;BME280;63663;0.000;0.000;2022-12-07T09:12:48;100657.00;;;7.60;61.98
75086;BME280;63663;0.000;0.000;2022-12-07T09:15:13;100652.41;;;7.61;62.44
75086;BME280;63663;0.000;0.000;2022-12-07T09:17:38;100661.59;;;7.60;62.51
75086;BME280;63663;0.000;0.000;2022-12-07T09:20:04;100654.31;;;7.60;62.33
75086;BME280;63663;0.000;0.000;2022-12-07T09:22:29;100658.91;;;7.60;62.00
75086;BME280;63663;0.000;0.000;2022-12-07T09:24:55;100659.72;;;7.60;62.48
75086;BME280;63663;0.000;0.000;2022-12-07T09:27:20;100657.00;;;7.60;62.39
75086;BME280;63663;0.000;0.000;2022-12-07T09:29:46;100652.41;;;7.61;62.45
75086;BME280;63663;0.000;0.000;2022-12-07T09:32:11;100657.00;;;7.60;62.96
75086;BME280;63663;0.000;0.000;2022-12-07T09:34:36;100664.63;;;7.63;62.27
75086;BME280;63663;0.000;0.000;2022-12-07T09:37:01;100665.75;;;7.68;62.30
75086;BME280;63663;0.000;0.000;2022-12-07T09:39:26;100666.50;;;7.63;62.30
75086;BME280;63663;0.000;0.000;2022-12-07T09:41:52;100660.25;;;7.62;62.25
75086;BME280;63663;0.000;0.000;2022-12-07T09:44:21;100660.25;;;7.62;62.64
75086;BME280;63663;0.000;0.000;2022-12-07T09:46:48;100659.72;;;7.60;62.65
75086;BME280;63663;0.000;0.000;2022-12-07T09:49:20;100660.53;;;7.61;62.52
75086;BME280;63663;0.000;0.000;2022-12-07T09:51:45;100658.63;;;7.61;62.48
75086;BME280;63663;0.000;0.000;2022-12-07T09:54:12;100657.56;;;7.62;62.61
75086;BME280;63663;0.000;0.000;2022-12-07T09:56:37;100659.44;;;7.62;62.63
75086;BME280;63663;0.000;0.000;2022-12-07T09:59:03;100654.84;;;7.62;62.38
75086;BME280;63663;0.000;0.000;2022-12-07T10:01:29;100652.41;;;7.61;62.73
75086;BME280;63663;0.000;0.000;2022-12-07T10:03:55;100657.00;;;7.60;62.91
75086;BME280;63663;0.000;0.000;2022-12-07T10:06:23;100652.66;;;7.59;62.59
75086;BME280;63663;0.000;0.000;2022-12-07T10:08:48;100646.41;;;7.59;62.99
75086;BME280;63663;0.000;0.000;2022-12-07T10:11:13;100658.06;;;7.59;62.71
75086;BME280;63663;0.000;0.000;2022-12-07T10:13:43;100654.31;;;7.60;62.72
75086;BME280;63663;0.000;0.000;2022-12-07T10:18:48;100654.03;;;7.62;62.35
75086;BME280;63663;0.000;0.000;2022-12-07T10:21:15;100635.34;;;7.60;62.60
75086;BME280;63663;0.000;0.000;2022-12-07T10:23:42;100642.38;;;7.61;62.53
75086;BME280;63663;0.000;0.000;2022-12-07T10:28:51;100637.78;;;7.62;62.75
75086;BME280;63663;0.000;0.000;2022-12-07T10:31:18;100640.75;;;7.60;63.18
75086;BME280;63663;0.000;0.000;2022-12-07T10:33:51;100633.16;;;7.62;63.31
75086;BME280;63663;0.000;0.000;2022-12-07T10:36:18;100634.81;;;7.63;62.93
75086;BME280;63663;0.000;0.000;2022-12-07T10:38:48;100636.69;;;7.63;63.32
75086;BME280;63663;0.000;0.000;2022-12-07T10:41:13;100633.44;;;7.61;62.92
75086;BME280;63663;0.000;0.000;2022-12-07T10:43:46;100628.81;;;7.61;62.79
75086;BME280;63663;0.000;0.000;2022-12-07T10:49:17;100619.63;;;7.62;63.03
75086;BME280;63663;0.000;0.000;2022-12-07T10:51:53;100615.03;;;7.63;63.15
75086;BME280;63663;0.000;0.000;2022-12-07T10:57:03;100618.81;;;7.62;63.12
75086;BME280;63663;0.000;0.000;2022-12-07T11:02:24;100615.28;;;7.61;63.22
75086;BME280;63663;0.000;0.000;2022-12-07T11:10:47;100609.63;;;7.63;63.46
75086;BME280;63663;0.000;0.000;2022-12-07T11:18:18;100604.44;;;7.61;63.59
75086;BME280;63663;0.000;0.000;2022-12-07T11:21:30;100606.09;;;7.62;63.25
75086;BME280;63663;0.000;0.000;2022-12-07T11:41:13;100579.06;;;7.68;63.23
75086;BME280;63663;0.000;0.000;2022-12-07T11:46:14;100571.75;;;7.68;62.80
75086;BME280;63663;0.000;0.000;2022-12-07T11:48:55;100569.06;;;7.68;62.90
75086;BME280;63663;0.000;0.000;2022-12-07T11:51:23;100568.72;;;7.64;63.67
75086;BME280;63663;0.000;0.000;2022-12-07T11:53:53;100572.09;;;7.72;63.24
75086;BME280;63663;0.000;0.000;2022-12-07T11:56:20;100567.72;;;7.71;63.44
75086;BME280;63663;0.000;0.000;2022-12-07T12:03:58;100557.91;;;7.64;63.46
75086;BME280;63663;0.000;0.000;2022-12-07T12:06:25;100552.53;;;7.70;63.27
75086;BME280;63663;0.000;0.000;2022-12-07T12:08:55;100560.94;;;7.68;62.98
75086;BME280;63663;0.000;0.000;2022-12-07T12:22:23;100552.59;;;7.75;63.60
75086;BME280;63663;0.000;0.000;2022-12-07T12:24:52;100551.28;;;7.77;63.44
75086;BME280;63663;0.000;0.000;2022-12-07T12:27:21;100544.53;;;7.80;63.90
75086;BME280;63663;0.000;0.000;2022-12-07T12:29:51;100547.16;;;7.75;64.00
75086;BME280;63663;0.000;0.000;2022-12-07T12:32:19;100543.13;;;7.77;63.61
75086;BME280;63663;0.000;0.000;2022-12-07T12:34:59;100542.88;;;7.79;63.58
75086;BME280;63663;0.000;0.000;2022-12-07T12:45:20;100531.34;;;7.88;63.40
75086;BME280;63663;0.000;0.000;2022-12-07T12:50:18;100522.94;;;7.90;63.59
75086;BME280;63663;0.000;0.000;2022-12-07T12:57:34;100524.84;;;7.89;63.55
75086;BME280;63663;0.000;0.000;2022-12-07T12:59:59;100526.13;;;7.82;63.27
75086;BME280;63663;0.000;0.000;2022-12-07T13:04:52;100524.84;;;7.89;62.89
75086;BME280;63663;0.000;0.000;2022-12-07T13:08:03;100531.34;;;7.88;63.03
75086;BME280;63663;0.000;0.000;2022-12-07T13:10:03;100530.56;;;7.93;63.07
75086;BME280;63663;0.000;0.000;2022-12-07T13:12:28;100521.00;;;7.85;63.06
75086;BME280;63663;0.000;0.000;2022-12-07T13:14:55;100534.59;;;7.90;62.79
75086;BME280;63663;0.000;0.000;2022-12-07T13:25:17;100518.34;;;7.90;62.75
75086;BME280;63663;0.000;0.000;2022-12-07T13:27:44;100513.25;;;7.94;62.56
75086;BME280;63663;0.000;0.000;2022-12-07T13:30:15;100502.91;;;7.91;62.94
75086;BME280;63663;0.000;0.000;2022-12-07T13:32:41;100506.44;;;7.91;62.55
75086;BME280;63663;0.000;0.000;2022-12-07T13:37:51;100494.03;;;7.95;62.42
75086;BME280;63663;0.000;0.000;2022-12-07T13:40:20;100491.25;;;7.90;62.81
75086;BME280;63663;0.000;0.000;2022-12-07T13:42:45;100491.56;;;7.94;62.74
75086;BME280;63663;0.000;0.000;2022-12-07T13:47:54;100490.78;;;7.98;63.03
75086;BME280;63663;0.000;0.000;2022-12-07T13:50:29;100490.78;;;7.98;62.38
75086;BME280;63663;0.000;0.000;2022-12-07T13:52:55;100490.22;;;7.96;62.75
75086;BME280;63663;0.000;0.000;2022-12-07T13:55:20;100491.84;;;7.97;62.48
75086;BME280;63663;0.000;0.000;2022-12-07T13:57:46;100496.97;;;7.94;62.83
75086;BME280;63663;0.000;0.000;2022-12-07T14:00:15;100491.81;;;7.92;62.79
75086;BME280;63663;0.000;0.000;2022-12-07T14:07:54;100490.53;;;8.00;62.52
75086;BME280;63663;0.000;0.000;2022-12-07T14:11:01;100496.19;;;7.98;62.40
75086;BME280;63663;0.000;0.000;2022-12-07T14:15:51;100486.97;;;7.94;62.45
75086;BME280;63663;0.000;0.000;2022-12-07T14:18:30;100482.03;;;7.91;62.98
75086;BME280;63663;0.000;0.000;2022-12-07T14:23:35;100473.94;;;7.96;62.29
75086;BME280;63663;0.000;0.000;2022-12-07T14:26:07;100475.91;;;8.01;61.86
75086;BME280;63663;0.000;0.000;2022-12-07T14:28:36;100477.22;;;7.98;61.92
75086;BME280;63663;0.000;0.000;2022-12-07T14:31:02;100476.94;;;7.95;62.33
75086;BME280;63663;0.000;0.000;2022-12-07T14:33:27;100475.88;;;7.96;62.25
75086;BME280;63663;0.000;0.000;2022-12-07T14:35:53;100477.47;;;7.97;62.03
75086;BME280;63663;0.000;0.000;2022-12-07T14:38:18;100473.91;;;7.91;61.81
75086;BME280;63663;0.000;0.000;2022-12-07T14:40:43;100473.66;;;7.93;61.91
75086;BME280;63663;0.000;0.000;2022-12-07T14:43:10;100471.22;;;7.91;62.42
75086;BME280;63663;0.000;0.000;2022-12-07T14:45:36;100473.66;;;7.93;61.80
75086;BME280;63663;0.000;0.000;2022-12-07T14:48:01;100479.66;;;7.95;61.59
75086;BME280;63663;0.000;0.000;2022-12-07T14:50:27;100473.66;;;7.93;61.84
75086;BME280;63663;0.000;0.000;2022-12-07T14:53:03;100473.91;;;7.91;62.38
75086;BME280;63663;0.000;0.000;2022-12-07T14:55:31;100477.75;;;7.95;62.16
75086;BME280;63663;0.000;0.000;2022-12-07T14:57:56;100474.22;;;7.95;61.85
75086;BME280;63663;0.000;0.000;2022-12-07T15:00:22;100480.19;;;7.97;61.97
75086;BME280;63663;0.000;0.000;2022-12-07T15:02:48;100476.13;;;7.94;61.44
75086;BME280;63663;0.000;0.000;2022-12-07T15:05:13;100468.53;;;7.96;61.46
75086;BME280;63663;0.000;0.000;2022-12-07T15:07:38;100473.91;;;7.91;61.66
75086;BME280;63663;0.000;0.000;2022-12-07T15:10:04;100467.69;;;7.91;61.90
75086;BME280;63663;0.000;0.000;2022-12-07T15:12:30;100470.69;;;7.94;61.33
75086;BME280;63663;0.000;0.000;2022-12-07T15:14:55;100472.34;;;7.95;61.39
75086;BME280;63663;0.000;0.000;2022-12-07T15:17:20;100471.22;;;7.96;61.68
75086;BME280;63663;0.000;0.000;2022-12-07T15:19:45;100472.59;;;7.94;61.43
75086;BME280;63663;0.000;0.000;2022-12-07T15:22:10;100466.84;;;7.90;61.28
75086;BME280;63663;0.000;0.000;2022-12-07T15:24:36;100469.06;;;7.93;61.34
75086;BME280;63663;0.000;0.000;2022-12-07T15:27:01;100460.94;;;7.93;61.61